Create Tblcommutelog Verified Points Advance Search
| # | Trip ID | Id Commuter | Trip Date | Trip Num | Current Lat | Current Lng | Delta Distance | Current Time | Activity | Activity Confidence | Current Speed | |
|---|---|---|---|---|---|---|---|---|---|---|---|---|
| 70081 | 251230_118321_1036641_1741 | 118321 | (not set) | (not set) | 38.764363848967 | -77.713966906974 | 49.1903 | 2025-12-30 19:36:12 | in_vehicle | 100 | 8.9541963575241 | |
| 70082 | 251230_118321_1036641_1741 | 118321 | (not set) | (not set) | 38.765854420548 | -77.725186561386 | 49.8812 | 2025-12-30 19:38:09 | in_vehicle | 100 | 10.456248267723 | |
| 70083 | 251230_769783_16636848_1710 | 769783 | (not set) | (not set) | 38.863740102176 | -77.000549219114 | 10.8599 | 2025-12-30 19:40:49 | in_vehicle | 100 | 7.572845047252 | |
| 70084 | 251230_769783_16636848_1710 | 769783 | (not set) | (not set) | 38.853827543864 | -76.976744069037 | 12.6228 | 2025-12-30 19:43:09 | in_vehicle | 100 | 10.071794504993 | |
| 70085 | 251230_789039_16657803_1700 | 789039 | (not set) | (not set) | 38.8918432 | -77.011902 | 0.4342 | 2025-12-30 17:04:25 | still | 100 | -0.44703925898772 | |
| 70086 | 251230_789039_16657803_1700 | 789039 | (not set) | (not set) | 38.8890411 | -77.0233001 | 0.8106 | 2025-12-30 17:08:48 | still | 100 | -0.44703925898772 | |
| 70087 | 251230_789039_16657803_1700 | 789039 | (not set) | (not set) | 38.8701871 | -77.0428924 | 0.8106 | 2025-12-30 17:17:47 | on_bicycle | 100 | -0.44703925898772 | |
| 70088 | 251230_789039_16657803_1700 | 789039 | (not set) | (not set) | 38.8602159 | -77.0490368 | 0.8106 | 2025-12-30 17:20:06 | on_bicycle | 100 | -0.44703925898772 | |
| 70089 | 251230_789039_16657803_1700 | 789039 | (not set) | (not set) | 38.8477541 | -77.0497824 | 0.8106 | 2025-12-30 17:23:54 | on_bicycle | 100 | -0.44703925898772 | |
| 70090 | 251230_789039_16657803_1700 | 789039 | (not set) | (not set) | 38.8384545 | -77.0564372 | 0.8106 | 2025-12-30 17:28:16 | on_bicycle | 100 | -0.44703925898772 | |
| 70091 | 251231_789579_16464305_0608 | 789579 | (not set) | (not set) | 39.076355564523 | -77.54139452271 | 0.6846 | 2025-12-31 06:16:11 | in_vehicle | 100 | 7.8813021359536 | |
| 70092 | 251231_789579_16464305_0608 | 789579 | (not set) | (not set) | 39.054781903658 | -77.549141387274 | 2.4319 | 2025-12-31 06:19:00 | in_vehicle | 100 | 10.107557645712 | |
| 70093 | 251231_789579_16464305_0608 | 789579 | (not set) | (not set) | 39.039998935026 | -77.530887177237 | 4.0379 | 2025-12-31 06:20:58 | in_vehicle | 100 | 9.1061897055799 | |
| 70094 | 251231_789579_16464305_0608 | 789579 | (not set) | (not set) | 39.03076797305 | -77.526740996803 | 5.4109 | 2025-12-31 06:23:37 | in_vehicle | 100 | 0 | |
| 70095 | 251231_789579_16464305_0608 | 789579 | (not set) | (not set) | 39.020331508155 | -77.511728328826 | 6.8446 | 2025-12-31 06:25:53 | in_vehicle | 100 | 8.994429890833 | |
| 70096 | 251231_785777_16506513_0626 | 785777 | (not set) | (not set) | 39.317116920245 | -76.556478626289 | 0.2122 | 2025-12-31 06:27:16 | unknown | 100 | 6.2451384480585 | |
| 70097 | 251231_785777_16506513_0626 | 785777 | (not set) | (not set) | 39.313618484954 | -76.564199024306 | 0.6978 | 2025-12-31 06:28:34 | in_vehicle | 100 | 3.6612515311095 | |
| 70098 | 251231_785777_16506513_0626 | 785777 | (not set) | (not set) | 39.314241900206 | -76.571749809073 | 1.1168 | 2025-12-31 06:30:04 | in_vehicle | 100 | 6.736881632945 | |
| 70099 | 251231_789579_16464305_0608 | 789579 | (not set) | (not set) | 39.006043051024 | -77.493811115235 | 8.5391 | 2025-12-31 06:31:15 | in_vehicle | 100 | -0.44703925898772 | |
| 70100 | 251231_789839_16472497_0624 | 789839 | (not set) | (not set) | 38.497024273313 | -77.382181347937 | 5.9647 | 2025-12-31 06:32:31 | in_vehicle | 100 | 12.172879022236 |